createdAt,value
2022-08-10T00:00:03.464Z,15.00
2022-08-10T00:02:33.098Z,15.10
2022-08-10T00:05:03.182Z,14.90
2022-08-10T00:07:31.094Z,14.90
2022-08-10T00:09:59.060Z,14.90
2022-08-10T00:12:53.793Z,14.80
2022-08-10T00:15:52.372Z,14.80
2022-08-10T00:18:07.812Z,14.70
2022-08-10T00:20:37.070Z,14.70
2022-08-10T00:23:05.220Z,14.60
2022-08-10T00:25:33.335Z,14.60
2022-08-10T00:28:04.059Z,14.50
2022-08-10T00:30:32.242Z,14.50
2022-08-10T00:33:00.150Z,14.50
2022-08-10T00:35:28.210Z,14.40
2022-08-10T00:37:58.201Z,14.30
2022-08-10T00:40:35.467Z,14.30
2022-08-10T00:43:06.057Z,14.30
2022-08-10T00:45:34.050Z,14.20
2022-08-10T00:48:02.025Z,14.20
2022-08-10T00:50:30.411Z,14.20
2022-08-10T00:52:59.913Z,14.20
2022-08-10T00:55:28.593Z,14.10
2022-08-10T00:57:57.456Z,14.10
2022-08-10T01:00:25.870Z,14.10
2022-08-10T01:02:54.027Z,14.00
2022-08-10T01:05:22.768Z,14.00
2022-08-10T01:08:11.505Z,13.90
2022-08-10T01:10:44.340Z,13.90
2022-08-10T01:13:19.153Z,13.80
2022-08-10T01:15:58.279Z,13.80
2022-08-10T01:18:39.718Z,13.80
2022-08-10T01:21:34.787Z,13.70
2022-08-10T01:24:19.989Z,13.70
2022-08-10T01:27:08.228Z,13.60
2022-08-10T01:29:50.507Z,13.60
2022-08-10T01:32:25.318Z,13.60
2022-08-10T01:34:57.861Z,13.60
2022-08-10T01:37:31.234Z,13.60
2022-08-10T01:40:03.742Z,13.50
2022-08-10T01:42:35.580Z,13.50
2022-08-10T01:45:07.222Z,13.40
2022-08-10T01:47:57.714Z,13.30
2022-08-10T01:50:30.794Z,13.30
2022-08-10T01:54:52.885Z,13.30
2022-08-10T01:57:25.537Z,13.20
2022-08-10T02:00:01.949Z,13.20
2022-08-10T02:02:37.192Z,13.20
2022-08-10T02:05:08.076Z,13.20
2022-08-10T02:07:38.869Z,13.20
2022-08-10T02:10:12.476Z,13.10
2022-08-10T02:12:44.438Z,13.10
2022-08-10T02:15:17.579Z,13.20
2022-08-10T02:17:57.545Z,13.30
2022-08-10T02:20:33.229Z,13.40
2022-08-10T02:23:05.470Z,13.60
2022-08-10T02:25:41.439Z,13.70
2022-08-10T02:28:27.419Z,13.80
2022-08-10T02:31:07.011Z,13.90
2022-08-10T02:33:56.607Z,14.10
2022-08-10T02:36:28.728Z,14.20
2022-08-10T02:39:01.008Z,14.20
2022-08-10T02:45:01.378Z,14.30
2022-08-10T02:45:27.431Z,14.30
2022-08-10T02:47:27.444Z,14.30
2022-08-10T02:49:58.565Z,14.30
2022-08-10T02:52:36.279Z,14.20
2022-08-10T02:55:18.379Z,14.20
2022-08-10T02:58:13.398Z,14.10
2022-08-10T03:00:47.109Z,14.10
2022-08-10T03:03:21.064Z,14.00
2022-08-10T03:05:52.770Z,13.90
2022-08-10T03:08:25.726Z,13.90
2022-08-10T03:10:55.724Z,13.70
2022-08-10T03:13:25.550Z,13.70
2022-08-10T03:15:54.024Z,13.70
2022-08-10T03:18:24.561Z,13.70
2022-08-10T03:20:53.915Z,13.70
2022-08-10T03:23:25.679Z,13.60
2022-08-10T03:25:57.791Z,13.60
2022-08-10T03:28:29.571Z,13.50
2022-08-10T03:30:59.290Z,13.40
2022-08-10T03:33:29.748Z,13.30
2022-08-10T03:36:43.417Z,13.30
2022-08-10T03:38:51.382Z,13.20
2022-08-10T03:41:29.628Z,13.20
2022-08-10T03:44:01.745Z,13.20
2022-08-10T03:46:32.313Z,13.20
2022-08-10T03:49:04.220Z,13.20
2022-08-10T03:51:33.370Z,13.20
2022-08-10T03:54:07.379Z,13.20
2022-08-10T03:56:40.795Z,13.20
2022-08-10T03:59:13.089Z,13.20
2022-08-10T04:02:45.831Z,13.20
2022-08-10T04:04:30.761Z,13.30
2022-08-10T04:07:00.217Z,13.20
2022-08-10T04:09:43.235Z,13.10
2022-08-10T04:12:18.268Z,13.10
2022-08-10T04:14:51.040Z,13.10
2022-08-10T04:18:02.692Z,13.10
2022-08-10T04:20:16.510Z,13.10
2022-08-10T04:22:46.904Z,13.00
2022-08-10T04:25:16.525Z,13.10
2022-08-10T04:27:44.861Z,13.00
2022-08-10T04:30:14.441Z,13.00
2022-08-10T04:32:43.333Z,13.10
2022-08-10T04:35:12.995Z,13.10
2022-08-10T04:37:46.946Z,13.10
2022-08-10T04:40:28.547Z,13.30
2022-08-10T04:43:12.241Z,13.40
2022-08-10T04:45:49.357Z,13.50
2022-08-10T04:48:40.490Z,13.70
2022-08-10T04:51:11.183Z,13.80
2022-08-10T04:54:04.944Z,14.20
2022-08-10T04:56:36.181Z,14.70
2022-08-10T04:59:05.297Z,15.30
2022-08-10T05:02:12.143Z,16.20
2022-08-10T05:04:35.057Z,17.00
2022-08-10T05:07:08.376Z,17.90
2022-08-10T05:10:04.991Z,18.50
2022-08-10T05:12:25.780Z,19.00
2022-08-10T05:14:54.609Z,19.50
2022-08-10T05:17:24.763Z,20.40
2022-08-10T05:20:05.119Z,20.90
2022-08-10T05:22:35.945Z,21.30
2022-08-10T05:25:05.070Z,21.80
2022-08-10T05:27:33.576Z,22.20
2022-08-10T05:30:03.401Z,23.30
2022-08-10T05:32:57.222Z,23.60
2022-08-10T05:35:22.118Z,24.60
2022-08-10T05:38:10.820Z,25.20
2022-08-10T05:40:42.626Z,26.00
2022-08-10T05:43:16.852Z,26.00
2022-08-10T05:46:17.628Z,25.60
2022-08-10T05:48:57.402Z,25.10
2022-08-10T05:51:23.916Z,25.30
2022-08-10T05:54:02.200Z,26.30
2022-08-10T05:56:57.072Z,26.00
2022-08-10T06:00:29.440Z,26.60
2022-08-10T06:02:32.159Z,27.60
2022-08-10T06:05:09.974Z,27.10
2022-08-10T06:07:41.953Z,26.70
2022-08-10T06:10:28.579Z,26.70
2022-08-10T06:13:26.831Z,26.90
2022-08-10T06:16:06.640Z,27.80
2022-08-10T06:18:35.077Z,28.70
2022-08-10T06:21:05.057Z,27.90
2022-08-10T06:23:33.861Z,27.70
2022-08-10T06:26:08.673Z,27.50
2022-08-10T06:28:54.029Z,28.70
2022-08-10T06:31:48.869Z,28.90
2022-08-10T06:34:21.926Z,29.30
2022-08-10T06:36:53.929Z,29.60
2022-08-10T06:39:33.443Z,30.00
2022-08-10T06:42:16.110Z,29.60
2022-08-10T06:45:05.854Z,30.10
2022-08-10T06:47:40.154Z,29.80
2022-08-10T06:50:14.896Z,30.50
2022-08-10T06:53:04.882Z,31.80
2022-08-10T06:55:40.117Z,32.30
2022-08-10T06:58:27.137Z,31.70
2022-08-10T07:00:58.152Z,32.50
2022-08-10T07:03:37.652Z,31.80
2022-08-10T07:06:07.733Z,32.10
2022-08-10T07:08:38.176Z,31.40
2022-08-10T07:11:11.459Z,30.90
2022-08-10T07:14:16.918Z,30.60
2022-08-10T07:16:31.015Z,30.80
2022-08-10T07:19:01.282Z,32.00
2022-08-10T07:21:31.202Z,32.30
2022-08-10T07:24:03.009Z,32.00
2022-08-10T07:26:32.334Z,31.50
2022-08-10T07:29:01.262Z,30.70
2022-08-10T07:31:54.861Z,31.40
2022-08-10T07:34:29.120Z,31.20
2022-08-10T07:37:02.349Z,31.80
2022-08-10T07:39:58.446Z,31.50
2022-08-10T07:42:26.329Z,30.60
2022-08-10T07:44:54.463Z,31.50
2022-08-10T07:47:52.888Z,33.60
2022-08-10T07:50:20.056Z,33.90
2022-08-10T07:52:50.230Z,34.50
2022-08-10T07:56:07.606Z,33.20
2022-08-10T07:58:12.305Z,32.90
2022-08-10T08:00:41.467Z,33.00
2022-08-10T08:03:13.368Z,32.40
2022-08-10T08:05:59.054Z,32.20
2022-08-10T08:08:31.299Z,32.80
2022-08-10T08:11:01.579Z,32.70
2022-08-10T08:13:30.360Z,33.40
2022-08-10T08:16:17.750Z,32.50
2022-08-10T08:19:03.926Z,31.60
2022-08-10T08:24:07.809Z,32.00
2022-08-10T08:24:33.677Z,32.70
2022-08-10T08:27:05.412Z,33.20
2022-08-10T08:29:36.865Z,34.20
2022-08-10T08:32:06.439Z,33.80
2022-08-10T08:34:39.185Z,32.40
2022-08-10T08:37:09.911Z,32.40
2022-08-10T08:39:38.442Z,32.50
2022-08-10T08:42:27.650Z,32.30
2022-08-10T08:46:00.909Z,32.30
2022-08-10T08:48:46.621Z,32.60
2022-08-10T08:52:08.017Z,32.90
2022-08-10T08:54:25.108Z,33.10
2022-08-10T08:57:04.966Z,33.70
2022-08-10T08:59:50.724Z,34.30
2022-08-10T09:02:30.468Z,36.20
2022-08-10T09:05:14.425Z,34.60
2022-08-10T09:08:03.631Z,34.80
2022-08-10T09:10:40.318Z,35.40
2022-08-10T09:13:15.407Z,36.20
2022-08-10T09:16:00.026Z,35.50
2022-08-10T09:18:40.135Z,35.50
2022-08-10T09:21:16.334Z,34.50
2022-08-10T09:24:02.129Z,34.40
2022-08-10T09:26:43.449Z,33.90
2022-08-10T09:29:15.439Z,34.40
2022-08-10T09:33:06.010Z,34.30
2022-08-10T09:36:29.081Z,34.40
2022-08-10T09:38:01.003Z,33.40
2022-08-10T09:40:59.334Z,32.90
2022-08-10T09:43:41.038Z,33.30
2022-08-10T09:46:17.149Z,33.80
2022-08-10T09:48:55.474Z,35.00
2022-08-10T09:51:45.372Z,35.00
2022-08-10T09:54:28.010Z,34.60
2022-08-10T09:57:41.631Z,34.10
2022-08-10T10:00:01.398Z,33.40
2022-08-10T10:02:43.184Z,33.20
2022-08-10T10:05:25.717Z,33.10
2022-08-10T10:08:08.296Z,32.40
2022-08-10T10:10:47.545Z,33.20
2022-08-10T10:13:50.637Z,32.70
2022-08-10T10:16:28.868Z,32.60
2022-08-10T10:19:09.113Z,32.70
2022-08-10T10:21:55.428Z,32.60
2022-08-10T10:24:31.096Z,32.60
2022-08-10T10:27:01.848Z,35.40
2022-08-10T10:29:56.852Z,34.90
2022-08-10T10:32:37.155Z,35.50
2022-08-10T10:35:15.347Z,36.60
2022-08-10T10:38:10.405Z,36.90
2022-08-10T10:40:43.262Z,35.20
2022-08-10T10:43:24.496Z,34.20
2022-08-10T10:46:12.989Z,36.10
2022-08-10T10:48:52.200Z,35.30
2022-08-10T10:51:28.382Z,35.60
2022-08-10T10:54:08.823Z,35.30
2022-08-10T10:56:44.441Z,36.70
2022-08-10T10:59:54.199Z,33.30
2022-08-10T11:02:22.426Z,32.80
2022-08-10T11:05:00.287Z,32.60
2022-08-10T11:07:37.015Z,32.80
2022-08-10T11:10:32.141Z,33.10
2022-08-10T11:14:27.303Z,32.40
2022-08-10T11:16:14.433Z,31.60
2022-08-10T11:18:57.550Z,31.00
2022-08-10T11:21:37.620Z,31.30
2022-08-10T11:24:47.078Z,32.40
2022-08-10T11:27:22.034Z,31.60
2022-08-10T11:30:01.606Z,31.30
2022-08-10T11:32:38.081Z,31.00
2022-08-10T11:35:16.709Z,32.00
2022-08-10T11:38:34.159Z,31.80
2022-08-10T11:40:52.233Z,31.10
2022-08-10T11:43:27.218Z,31.80
2022-08-10T11:46:27.598Z,32.10
2022-08-10T11:49:04.682Z,31.00
2022-08-10T11:51:43.284Z,29.50
2022-08-10T11:54:22.457Z,28.80
2022-08-10T11:56:58.541Z,28.00
2022-08-10T11:59:58.076Z,29.30
2022-08-10T12:02:33.509Z,30.60
2022-08-10T12:05:07.344Z,29.30
2022-08-10T12:10:01.987Z,28.20
2022-08-10T12:10:30.382Z,27.50
2022-08-10T12:13:05.761Z,26.90
2022-08-10T12:15:41.890Z,26.40
2022-08-10T12:18:16.242Z,26.30
2022-08-10T12:20:50.766Z,26.00
2022-08-10T12:23:23.103Z,26.00
2022-08-10T12:25:59.442Z,26.00
2022-08-10T12:28:50.982Z,26.10
2022-08-10T12:31:27.736Z,26.50
2022-08-10T12:34:06.321Z,26.00
2022-08-10T12:36:39.818Z,26.00
2022-08-10T12:39:13.449Z,25.80
2022-08-10T12:41:47.142Z,25.80
2022-08-10T12:44:20.936Z,25.90
2022-08-10T12:46:59.586Z,25.50
2022-08-10T12:49:33.133Z,25.50
2022-08-10T12:52:07.072Z,25.60
2022-08-10T12:54:39.049Z,25.50
2022-08-10T12:57:17.100Z,25.50
2022-08-10T12:59:48.846Z,25.70
2022-08-10T13:02:26.267Z,25.70
2022-08-10T13:04:58.140Z,25.90
2022-08-10T13:08:05.334Z,26.00
2022-08-10T13:10:18.304Z,25.70
2022-08-10T13:12:49.814Z,25.70
2022-08-10T13:15:44.976Z,25.90
2022-08-10T13:18:19.066Z,25.50
2022-08-10T13:20:52.301Z,25.60
2022-08-10T13:23:24.401Z,25.70
2022-08-10T13:25:53.582Z,25.70
2022-08-10T13:28:37.800Z,25.80
2022-08-10T13:31:16.845Z,25.70
2022-08-10T13:34:41.045Z,25.80
2022-08-10T13:36:41.289Z,25.70
2022-08-10T13:39:10.004Z,25.70
2022-08-10T13:41:41.587Z,25.70
2022-08-10T13:44:12.128Z,25.60
2022-08-10T13:46:42.335Z,25.50
2022-08-10T13:49:12.839Z,25.50
2022-08-10T13:51:57.034Z,25.50
2022-08-10T13:54:28.888Z,25.50
2022-08-10T13:56:57.771Z,25.20
2022-08-10T14:00:35.341Z,25.20
2022-08-10T14:02:25.393Z,25.30
2022-08-10T14:04:57.149Z,25.30
2022-08-10T14:07:27.304Z,25.40
2022-08-10T14:10:01.183Z,25.40
2022-08-10T14:12:33.593Z,25.50
2022-08-10T14:15:03.543Z,25.50
2022-08-10T14:17:33.030Z,25.50
2022-08-10T14:20:03.800Z,25.50
2022-08-10T14:22:35.710Z,25.50
2022-08-10T14:25:09.034Z,25.40
2022-08-10T14:28:01.903Z,25.20
2022-08-10T14:30:31.144Z,25.30
2022-08-10T14:33:04.158Z,25.30
2022-08-10T14:36:20.082Z,25.20
2022-08-10T14:38:28.327Z,25.30
2022-08-10T14:40:59.743Z,25.30
2022-08-10T14:43:29.702Z,25.40
2022-08-10T14:46:01.760Z,25.50
2022-08-10T14:48:33.808Z,25.50
2022-08-10T14:51:05.469Z,25.60
2022-08-10T14:53:37.756Z,25.70
2022-08-10T14:56:09.664Z,25.70
2022-08-10T14:58:58.966Z,25.60
2022-08-10T15:02:01.173Z,25.40
2022-08-10T15:04:23.942Z,25.40
2022-08-10T15:06:56.162Z,25.50
2022-08-10T15:09:37.318Z,25.50
2022-08-10T15:12:25.021Z,25.50
2022-08-10T15:15:00.521Z,25.40
2022-08-10T15:17:35.201Z,25.50
2022-08-10T15:20:14.176Z,25.50
2022-08-10T15:22:50.241Z,25.50
2022-08-10T15:25:25.085Z,25.40
2022-08-10T15:27:57.806Z,25.40
2022-08-10T15:30:39.513Z,25.50
2022-08-10T15:34:03.651Z,25.50
2022-08-10T15:36:35.475Z,25.50
2022-08-10T15:39:16.576Z,25.50
2022-08-10T15:42:01.809Z,25.40
2022-08-10T15:44:38.142Z,25.20
2022-08-10T15:47:10.420Z,25.20
2022-08-10T15:49:46.366Z,25.30
2022-08-10T15:53:00.469Z,25.20
2022-08-10T15:55:42.307Z,25.20
2022-08-10T15:58:08.080Z,25.30
2022-08-10T16:00:45.294Z,25.30
2022-08-10T16:03:18.317Z,25.20
2022-08-10T16:06:01.950Z,25.30
2022-08-10T16:08:55.838Z,25.20
2022-08-10T16:11:38.170Z,25.30
2022-08-10T16:14:15.554Z,25.30
2022-08-10T16:16:48.660Z,25.30
2022-08-10T16:19:23.880Z,25.30
2022-08-10T16:22:01.144Z,25.20
2022-08-10T16:24:33.647Z,25.10
2022-08-10T16:27:04.868Z,25.00
2022-08-10T16:29:33.655Z,24.90
2022-08-10T16:32:23.219Z,24.80
2022-08-10T16:34:52.810Z,24.80
2022-08-10T16:37:22.474Z,24.80
2022-08-10T16:39:59.808Z,24.80
2022-08-10T16:42:33.374Z,24.70
2022-08-10T16:45:04.621Z,24.60
2022-08-10T16:47:35.413Z,24.60
2022-08-10T16:50:07.855Z,24.70
2022-08-10T16:52:37.192Z,24.80
2022-08-10T16:55:23.432Z,24.80
2022-08-10T16:58:00.331Z,24.80
2022-08-10T17:00:29.464Z,24.60
2022-08-10T17:04:04.448Z,24.60
2022-08-10T17:06:10.132Z,24.60
2022-08-10T17:08:47.975Z,24.60
2022-08-10T17:11:18.842Z,24.40
2022-08-10T17:13:48.919Z,24.40
2022-08-10T17:16:18.356Z,24.40
2022-08-10T17:18:48.301Z,24.30
2022-08-10T17:21:21.706Z,24.20
2022-08-10T17:23:51.288Z,24.20
2022-08-10T17:26:31.196Z,24.10
2022-08-10T17:29:17.161Z,24.10
2022-08-10T17:32:06.280Z,24.10
2022-08-10T17:34:37.918Z,24.00
2022-08-10T17:37:13.908Z,24.00
2022-08-10T17:39:46.559Z,23.90
2022-08-10T17:42:21.293Z,23.90
2022-08-10T17:44:54.394Z,23.90
2022-08-10T17:47:27.441Z,23.70
2022-08-10T17:49:57.917Z,23.70
2022-08-10T17:52:32.658Z,23.70
2022-08-10T17:55:05.260Z,23.60
2022-08-10T17:57:37.563Z,23.60
2022-08-10T18:00:13.488Z,23.50
2022-08-10T18:02:44.663Z,23.50
2022-08-10T18:05:15.651Z,23.30
2022-08-10T18:07:48.903Z,23.30
2022-08-10T18:10:18.360Z,23.20
2022-08-10T18:12:48.558Z,23.20
2022-08-10T18:15:22.930Z,23.10
2022-08-10T18:17:59.177Z,22.90
2022-08-10T18:20:34.559Z,22.90
2022-08-10T18:23:16.387Z,22.90
2022-08-10T18:25:48.734Z,22.80
2022-08-10T18:28:20.985Z,22.70
2022-08-10T18:30:54.245Z,22.70
2022-08-10T18:33:29.215Z,22.60
2022-08-10T18:36:06.393Z,22.50
2022-08-10T18:38:38.562Z,22.40
2022-08-10T18:41:12.009Z,22.30
2022-08-10T18:44:05.700Z,22.30
2022-08-10T18:46:42.495Z,22.20
2022-08-10T18:49:13.652Z,22.10
2022-08-10T18:51:46.542Z,22.00
2022-08-10T18:54:34.511Z,22.00
2022-08-10T18:57:16.976Z,21.90
2022-08-10T19:00:03.705Z,21.80
2022-08-10T19:03:02.163Z,21.70
2022-08-10T19:05:48.597Z,21.60
2022-08-10T19:08:36.141Z,21.60
2022-08-10T19:11:24.416Z,21.50
2022-08-10T19:14:00.133Z,21.50
2022-08-10T19:16:40.326Z,21.40
2022-08-10T19:19:26.497Z,21.30
2022-08-10T19:22:03.168Z,21.30
2022-08-10T19:24:44.239Z,21.20
2022-08-10T19:27:16.103Z,21.10
2022-08-10T19:30:13.043Z,21.10
2022-08-10T19:33:03.434Z,21.00
2022-08-10T19:36:04.019Z,21.00
2022-08-10T19:38:36.865Z,20.80
2022-08-10T19:41:32.059Z,20.70
2022-08-10T19:44:22.334Z,20.70
2022-08-10T19:46:57.636Z,20.60
2022-08-10T19:49:39.972Z,20.60
2022-08-10T19:52:17.184Z,20.50
2022-08-10T19:54:56.722Z,20.50
2022-08-10T19:57:34.423Z,20.50
2022-08-10T20:00:19.196Z,20.40
2022-08-10T20:02:59.988Z,20.30
2022-08-10T20:05:33.292Z,20.30
2022-08-10T20:08:07.204Z,20.20
2022-08-10T20:10:44.148Z,20.20
2022-08-10T20:13:20.241Z,20.10
2022-08-10T20:15:57.931Z,20.00
2022-08-10T20:18:31.476Z,20.00
2022-08-10T20:21:04.359Z,19.90
2022-08-10T20:23:37.923Z,19.90
2022-08-10T20:26:14.149Z,19.80
2022-08-10T20:29:00.664Z,19.80
2022-08-10T20:31:34.780Z,19.70
2022-08-10T20:34:08.589Z,19.60
2022-08-10T20:36:44.262Z,19.60
2022-08-10T20:39:20.779Z,19.60
2022-08-10T20:42:02.842Z,19.40
2022-08-10T20:44:44.795Z,19.40
2022-08-10T20:47:19.282Z,19.30
2022-08-10T20:49:54.770Z,19.30
2022-08-10T20:52:25.821Z,19.30
2022-08-10T20:55:01.530Z,19.20
2022-08-10T20:57:55.191Z,19.00
2022-08-10T21:00:34.381Z,19.00
2022-08-10T21:03:31.890Z,18.90
2022-08-10T21:06:14.024Z,18.90
2022-08-10T21:08:51.805Z,18.80
2022-08-10T21:11:35.645Z,18.80
2022-08-10T21:14:25.588Z,18.70
2022-08-10T21:17:09.911Z,18.60
2022-08-10T21:19:59.779Z,18.60
2022-08-10T21:22:33.251Z,18.50
2022-08-10T21:25:03.694Z,18.50
2022-08-10T21:28:04.228Z,18.40
2022-08-10T21:30:46.451Z,18.30
2022-08-10T21:33:27.695Z,18.20
2022-08-10T21:36:02.257Z,18.20
2022-08-10T21:38:47.386Z,18.20
2022-08-10T21:41:57.902Z,18.10
2022-08-10T21:45:08.209Z,18.10
2022-08-10T21:48:17.381Z,18.10
2022-08-10T21:51:16.708Z,18.10
2022-08-10T21:54:25.934Z,18.00
2022-08-10T21:57:20.764Z,17.90
2022-08-10T22:00:25.777Z,17.90
2022-08-10T22:03:19.085Z,17.80
2022-08-10T22:06:08.310Z,17.80
2022-08-10T22:08:58.986Z,17.70
2022-08-10T22:11:48.518Z,17.60
2022-08-10T22:14:43.146Z,17.60
2022-08-10T22:18:04.519Z,17.70
2022-08-10T22:20:44.594Z,17.60
2022-08-10T22:23:47.905Z,17.60
2022-08-10T22:26:56.620Z,17.60
2022-08-10T22:29:52.158Z,17.50
2022-08-10T22:32:47.038Z,17.40
2022-08-10T22:35:57.244Z,17.40
2022-08-10T22:38:56.343Z,17.50
2022-08-10T22:41:51.380Z,17.40
2022-08-10T22:44:40.490Z,17.40
2022-08-10T22:47:32.109Z,17.30
2022-08-10T22:50:03.394Z,17.30
2022-08-10T22:52:57.137Z,17.30
2022-08-10T22:55:52.656Z,17.40
2022-08-10T22:58:39.953Z,17.30
2022-08-10T23:01:12.979Z,17.40
2022-08-10T23:03:49.736Z,17.40
2022-08-10T23:06:27.020Z,17.30
2022-08-10T23:09:01.224Z,17.30
2022-08-10T23:11:33.448Z,17.30
2022-08-10T23:14:04.281Z,17.30
2022-08-10T23:16:54.597Z,17.30
2022-08-10T23:19:26.825Z,17.20
2022-08-10T23:22:04.799Z,17.20
2022-08-10T23:24:37.315Z,17.20
2022-08-10T23:27:12.355Z,17.20
2022-08-10T23:29:44.699Z,17.20
2022-08-10T23:32:32.892Z,17.10
2022-08-10T23:36:30.464Z,17.10
2022-08-10T23:37:56.006Z,17.10
2022-08-10T23:40:24.554Z,17.00
2022-08-10T23:42:54.138Z,16.90
2022-08-10T23:45:26.534Z,17.00
2022-08-10T23:47:59.696Z,17.00
2022-08-10T23:50:29.665Z,16.90
2022-08-10T23:53:00.856Z,16.90
2022-08-10T23:55:33.902Z,16.80
2022-08-10T23:58:31.552Z,16.70
